createdAt,value
2019-03-23T00:00:53.477Z,12.10
2019-03-23T00:03:23.265Z,11.73
2019-03-23T00:05:53.079Z,11.30
2019-03-23T00:08:22.780Z,10.57
2019-03-23T00:10:52.903Z,13.25
2019-03-23T00:13:22.807Z,13.87
2019-03-23T00:15:53.668Z,17.57
2019-03-23T00:18:23.414Z,19.57
2019-03-23T00:20:53.236Z,19.73
2019-03-23T00:23:22.986Z,18.00
2019-03-23T00:25:52.703Z,19.40
2019-03-23T00:28:22.863Z,17.80
2019-03-23T00:30:52.628Z,22.80
2019-03-23T00:33:22.407Z,23.80
2019-03-23T00:35:52.482Z,19.43
2019-03-23T00:38:23.150Z,19.30
2019-03-23T00:40:52.996Z,21.57
2019-03-23T00:43:23.243Z,15.07
2019-03-23T00:45:53.878Z,18.87
2019-03-23T00:48:23.740Z,15.45
2019-03-23T00:50:53.523Z,15.95
2019-03-23T00:53:23.755Z,22.43
2019-03-23T00:55:53.563Z,17.73
2019-03-23T00:58:23.658Z,18.50
2019-03-23T01:00:53.946Z,20.30
2019-03-23T01:03:23.809Z,22.32
2019-03-23T01:05:53.608Z,17.50
2019-03-23T01:08:23.445Z,17.40
2019-03-23T01:10:53.303Z,17.57
2019-03-23T01:13:23.179Z,18.87
2019-03-23T01:15:53.710Z,17.03
2019-03-23T01:18:23.530Z,16.15
2019-03-23T01:21:00.295Z,15.50
2019-03-23T01:23:30.129Z,13.63
2019-03-23T01:26:00.336Z,18.47
2019-03-23T01:28:31.638Z,15.67
2019-03-23T01:31:01.870Z,15.23
2019-03-23T01:33:31.684Z,12.77
2019-03-23T01:36:01.418Z,17.33
2019-03-23T01:38:51.385Z,14.93
2019-03-23T01:41:21.266Z,13.43
2019-03-23T01:43:51.555Z,20.50
2019-03-23T01:46:21.928Z,16.75
2019-03-23T01:48:52.369Z,13.62
2019-03-23T01:51:22.783Z,14.23
2019-03-23T01:53:52.653Z,16.77
2019-03-23T01:56:22.591Z,18.00
2019-03-23T01:58:52.414Z,16.65
2019-03-23T02:01:22.417Z,16.73
2019-03-23T02:03:52.775Z,15.90
2019-03-23T02:06:22.803Z,26.17
2019-03-23T02:08:52.670Z,16.10
2019-03-23T02:11:22.948Z,16.10
2019-03-23T02:13:52.673Z,11.18
2019-03-23T02:16:22.437Z,15.53
2019-03-23T02:18:52.641Z,15.07
2019-03-23T02:21:24.021Z,12.55
2019-03-23T02:23:53.726Z,17.50
2019-03-23T02:26:23.678Z,17.30
2019-03-23T02:28:53.684Z,16.57
2019-03-23T02:31:23.419Z,14.47
2019-03-23T02:33:53.358Z,14.43
2019-03-23T02:36:23.484Z,15.67
2019-03-23T02:38:53.607Z,15.23
2019-03-23T02:41:23.626Z,17.73
2019-03-23T02:43:54.576Z,14.80
2019-03-23T02:46:24.373Z,14.00
2019-03-23T02:48:54.211Z,18.70
2019-03-23T02:51:23.994Z,14.63
2019-03-23T02:53:54.076Z,15.35
2019-03-23T02:56:23.797Z,16.33
2019-03-23T02:58:53.840Z,16.70
2019-03-23T03:01:23.673Z,19.07
2019-03-23T03:03:53.663Z,13.53
2019-03-23T03:06:23.601Z,16.50
2019-03-23T03:08:53.677Z,13.93
2019-03-23T03:11:23.405Z,22.13
2019-03-23T03:13:53.203Z,18.10
2019-03-23T03:16:23.106Z,18.43
2019-03-23T03:18:52.841Z,16.60
2019-03-23T03:21:22.639Z,18.60
2019-03-23T03:23:52.777Z,18.50
2019-03-23T03:26:22.518Z,17.50
2019-03-23T03:28:52.731Z,21.77
2019-03-23T03:31:22.501Z,21.33
2019-03-23T03:33:52.170Z,26.90
2019-03-23T03:36:22.301Z,12.90
2019-03-23T03:38:52.095Z,18.10
2019-03-23T03:41:22.149Z,20.90
2019-03-23T03:43:51.971Z,16.43
2019-03-23T03:46:21.955Z,23.75
2019-03-23T03:48:52.084Z,21.37
2019-03-23T03:51:21.863Z,18.30
2019-03-23T03:53:51.656Z,16.60
2019-03-23T03:56:21.388Z,17.80
2019-03-23T03:58:51.554Z,17.40
2019-03-23T04:01:21.364Z,17.53
2019-03-23T04:03:51.628Z,20.43
2019-03-23T04:06:21.333Z,18.17
2019-03-23T04:08:51.459Z,20.40
2019-03-23T04:11:21.286Z,21.17
2019-03-23T04:13:50.995Z,17.17
2019-03-23T04:16:21.006Z,18.65
2019-03-23T04:18:51.052Z,19.30
2019-03-23T04:21:21.116Z,16.67
2019-03-23T04:23:50.861Z,15.87
2019-03-23T04:26:21.040Z,17.53
2019-03-23T04:28:50.978Z,18.27
2019-03-23T04:31:20.687Z,18.77
2019-03-23T04:33:50.577Z,24.20
2019-03-23T04:36:20.611Z,21.03
2019-03-23T04:38:50.447Z,21.93
2019-03-23T04:41:20.486Z,17.90
2019-03-23T04:43:50.190Z,20.63
2019-03-23T04:46:20.159Z,19.50
2019-03-23T04:48:50.227Z,21.13
2019-03-23T04:51:20.052Z,19.03
2019-03-23T04:53:50.024Z,22.87
2019-03-23T04:56:19.789Z,17.10
2019-03-23T04:58:50.026Z,17.00
2019-03-23T05:01:19.827Z,21.62
2019-03-23T05:03:49.540Z,20.15
2019-03-23T05:06:19.364Z,20.72
2019-03-23T05:08:49.100Z,22.32
2019-03-23T05:11:19.277Z,18.42
2019-03-23T05:13:49.095Z,24.77
2019-03-23T05:16:18.904Z,18.45
2019-03-23T05:18:48.771Z,18.92
2019-03-23T05:21:18.563Z,18.12
2019-03-23T05:23:48.340Z,22.43
2019-03-23T05:26:18.190Z,20.85
2019-03-23T05:28:47.922Z,19.53
2019-03-23T05:31:17.747Z,18.07
2019-03-23T05:33:47.538Z,19.33
2019-03-23T05:36:17.725Z,20.03
2019-03-23T05:38:47.527Z,17.73
2019-03-23T05:41:17.617Z,19.70
2019-03-23T05:43:47.752Z,24.40
2019-03-23T05:46:17.593Z,21.63
2019-03-23T05:48:47.390Z,19.60
2019-03-23T05:51:17.523Z,23.17
2019-03-23T05:53:47.371Z,26.63
2019-03-23T05:56:17.144Z,18.83
2019-03-23T05:58:47.651Z,21.63
2019-03-23T06:01:17.439Z,17.50
2019-03-23T06:03:47.766Z,20.97
2019-03-23T06:06:17.543Z,24.18
2019-03-23T06:08:54.958Z,23.87
2019-03-23T06:11:20.367Z,19.50
2019-03-23T06:13:50.406Z,21.00
2019-03-23T06:16:20.218Z,26.30
2019-03-23T06:18:50.215Z,21.63
2019-03-23T06:21:20.129Z,22.30
2019-03-23T06:23:49.943Z,22.80
2019-03-23T06:26:20.144Z,22.37
2019-03-23T06:28:49.918Z,21.53
2019-03-23T06:31:19.706Z,23.05
2019-03-23T06:33:49.789Z,22.10
2019-03-23T06:36:19.935Z,26.00
2019-03-23T06:38:49.774Z,20.23
2019-03-23T06:41:19.873Z,20.50
2019-03-23T06:43:49.854Z,20.10
2019-03-23T06:46:19.540Z,22.17
2019-03-23T06:48:49.333Z,22.90
2019-03-23T06:51:19.094Z,19.67
2019-03-23T06:53:48.752Z,26.50
2019-03-23T06:56:19.256Z,18.73
2019-03-23T06:58:49.434Z,21.33
2019-03-23T07:01:19.224Z,19.45
2019-03-23T07:03:49.290Z,20.93
2019-03-23T07:06:19.128Z,21.73
2019-03-23T07:08:49.183Z,20.77
2019-03-23T07:11:18.994Z,25.77
2019-03-23T07:13:48.879Z,21.30
2019-03-23T07:16:18.702Z,20.85
2019-03-23T07:18:48.456Z,16.60
2019-03-23T07:21:18.919Z,18.77
2019-03-23T07:23:49.057Z,19.37
2019-03-23T07:26:18.949Z,18.00
2019-03-23T07:28:48.731Z,19.52
2019-03-23T07:31:19.283Z,19.73
2019-03-23T07:33:49.193Z,19.37
2019-03-23T07:36:18.975Z,31.47
2019-03-23T07:38:48.786Z,22.85
2019-03-23T07:41:18.599Z,29.07
2019-03-23T07:43:48.424Z,25.30
2019-03-23T07:46:18.606Z,31.87
2019-03-23T07:48:49.103Z,26.27
2019-03-23T07:51:19.252Z,28.30
2019-03-23T07:53:48.966Z,20.07
2019-03-23T07:56:18.711Z,24.32
2019-03-23T07:58:49.184Z,41.37
2019-03-23T08:01:19.243Z,38.00
2019-03-23T08:03:49.412Z,30.80
2019-03-23T08:06:19.157Z,25.10
2019-03-23T08:08:48.910Z,27.67
2019-03-23T08:11:19.179Z,22.67
2019-03-23T08:13:49.050Z,21.83
2019-03-23T08:16:18.889Z,23.42
2019-03-23T08:18:48.877Z,20.33
2019-03-23T08:21:18.728Z,22.62
2019-03-23T08:23:49.234Z,19.23
2019-03-23T08:26:19.039Z,23.63
2019-03-23T08:28:48.812Z,19.20
2019-03-23T08:31:18.600Z,20.33
2019-03-23T08:33:49.235Z,24.93
2019-03-23T08:36:19.125Z,23.50
2019-03-23T08:38:48.984Z,24.67
2019-03-23T08:41:18.765Z,26.65
2019-03-23T08:43:48.891Z,22.05
2019-03-23T08:46:19.176Z,22.67
2019-03-23T08:48:48.947Z,23.23
2019-03-23T08:51:19.225Z,22.90
2019-03-23T08:53:49.059Z,22.90
2019-03-23T08:56:18.847Z,24.93
2019-03-23T08:58:46.487Z,26.07
2019-03-23T09:01:16.290Z,23.10
2019-03-23T09:03:52.544Z,23.00
2019-03-23T09:06:18.176Z,22.40
2019-03-23T09:08:47.959Z,21.48
2019-03-23T09:11:20.711Z,24.70
2019-03-23T09:13:49.323Z,21.93
2019-03-23T09:16:19.596Z,24.47
2019-03-23T09:18:49.396Z,25.10
2019-03-23T09:21:19.175Z,20.80
2019-03-23T09:23:49.033Z,26.63
2019-03-23T09:26:18.797Z,21.62
2019-03-23T09:28:48.575Z,24.70
2019-03-23T09:31:30.731Z,24.60
2019-03-23T09:34:02.076Z,21.77
2019-03-23T09:36:33.018Z,26.05
2019-03-23T09:39:05.603Z,23.80
2019-03-23T09:41:35.372Z,21.73
2019-03-23T09:44:05.364Z,23.90
2019-03-23T09:46:35.524Z,25.88
2019-03-23T09:49:05.407Z,26.60
2019-03-23T09:51:35.289Z,26.00
2019-03-23T09:54:05.116Z,19.77
2019-03-23T09:56:34.943Z,25.80
2019-03-23T09:59:04.732Z,26.23
2019-03-23T10:01:34.545Z,22.77
2019-03-23T10:04:04.777Z,51.27
2019-03-23T10:06:35.064Z,25.43
2019-03-23T10:09:06.106Z,27.10
2019-03-23T10:11:36.760Z,22.90
2019-03-23T10:14:06.689Z,27.73
2019-03-23T10:16:36.988Z,26.93
2019-03-23T10:19:06.848Z,23.43
2019-03-23T10:21:37.283Z,22.70
2019-03-23T10:24:07.117Z,27.90
2019-03-23T10:26:36.821Z,23.50
2019-03-23T10:29:06.608Z,26.07
2019-03-23T10:31:36.464Z,26.23
2019-03-23T10:34:06.319Z,27.97
2019-03-23T10:36:36.199Z,25.70
2019-03-23T10:39:07.178Z,28.73
2019-03-23T10:41:37.283Z,29.80
2019-03-23T10:44:07.142Z,32.27
2019-03-23T10:46:36.912Z,29.43
2019-03-23T10:49:06.767Z,30.70
2019-03-23T10:51:36.617Z,26.27
2019-03-23T10:54:06.390Z,27.83
2019-03-23T10:56:39.046Z,26.73
2019-03-23T10:59:08.936Z,30.27
2019-03-23T11:01:38.743Z,28.20
2019-03-23T11:04:08.567Z,30.30
2019-03-23T11:06:38.853Z,25.10
2019-03-23T11:09:08.842Z,33.50
2019-03-23T11:11:38.932Z,35.47
2019-03-23T11:14:09.049Z,33.37
2019-03-23T11:16:38.942Z,31.93
2019-03-23T11:19:13.328Z,33.90
2019-03-23T11:21:40.236Z,36.50
2019-03-23T11:24:10.075Z,36.60
2019-03-23T11:26:39.914Z,29.00
2019-03-23T11:29:10.530Z,34.17
2019-03-23T11:31:40.682Z,28.30
2019-03-23T11:34:17.542Z,32.57
2019-03-23T11:36:42.147Z,34.70
2019-03-23T11:39:11.883Z,34.77
2019-03-23T11:41:41.693Z,30.10
2019-03-23T11:44:11.435Z,40.30
2019-03-23T11:46:41.382Z,34.90
2019-03-23T11:49:11.264Z,39.23
2019-03-23T11:51:41.071Z,28.20
2019-03-23T11:54:10.927Z,33.43
2019-03-23T11:56:40.683Z,33.23
2019-03-23T11:59:10.740Z,34.50
2019-03-23T12:01:40.552Z,35.03
2019-03-23T12:04:10.323Z,28.25
2019-03-23T12:06:40.536Z,29.00
2019-03-23T12:09:10.411Z,30.80
2019-03-23T12:11:40.544Z,29.00
2019-03-23T12:14:10.276Z,34.53
2019-03-23T12:16:40.062Z,30.53
2019-03-23T12:19:09.813Z,38.43
2019-03-23T12:21:40.271Z,30.87
2019-03-23T12:24:10.066Z,36.87
2019-03-23T12:26:39.920Z,31.75
2019-03-23T12:29:12.235Z,35.77
2019-03-23T12:31:42.684Z,36.37
2019-03-23T12:34:12.521Z,34.10
2019-03-23T12:36:42.221Z,38.57
2019-03-23T12:39:11.327Z,39.10
2019-03-23T12:41:41.107Z,40.10
2019-03-23T12:44:11.299Z,35.60
2019-03-23T12:46:48.311Z,39.93
2019-03-23T12:49:13.510Z,36.05
2019-03-23T12:51:43.636Z,39.00
2019-03-23T12:54:13.895Z,40.73
2019-03-23T12:56:43.680Z,39.27
2019-03-23T12:59:13.527Z,42.40
2019-03-23T13:01:43.752Z,44.20
2019-03-23T13:04:24.658Z,39.83
2019-03-23T13:07:07.189Z,35.70
2019-03-23T13:09:41.960Z,34.67
2019-03-23T13:12:16.745Z,38.90
2019-03-23T13:14:47.158Z,40.17
2019-03-23T13:17:16.921Z,39.30
2019-03-23T13:19:46.936Z,40.87
2019-03-23T13:22:16.766Z,39.13
2019-03-23T13:24:46.689Z,38.30
2019-03-23T13:27:16.568Z,42.90
2019-03-23T13:29:46.412Z,44.17
2019-03-23T13:32:16.295Z,46.18
2019-03-23T13:34:46.089Z,43.50
2019-03-23T13:37:15.942Z,34.18
2019-03-23T13:39:46.211Z,38.73
2019-03-23T13:42:16.336Z,45.57
2019-03-23T13:44:46.162Z,38.20
2019-03-23T13:47:16.008Z,39.33
2019-03-23T13:49:45.851Z,38.67
2019-03-23T13:52:16.045Z,40.50
2019-03-23T13:54:45.894Z,37.27
2019-03-23T13:57:15.766Z,40.57
2019-03-23T13:59:58.332Z,38.63
2019-03-23T14:02:28.250Z,41.03
2019-03-23T14:04:58.029Z,34.27
2019-03-23T14:07:27.936Z,46.25
2019-03-23T14:09:57.828Z,38.30
2019-03-23T14:12:27.669Z,40.53
2019-03-23T14:14:57.973Z,41.73
2019-03-23T14:17:27.785Z,41.00
2019-03-23T14:20:01.883Z,40.40
2019-03-23T14:22:32.350Z,41.50
2019-03-23T14:25:02.271Z,40.53
2019-03-23T14:27:32.053Z,42.07
2019-03-23T14:30:01.789Z,41.50
2019-03-23T14:32:32.008Z,48.47
2019-03-23T14:35:01.856Z,42.17
2019-03-23T14:37:31.653Z,52.08
2019-03-23T14:40:01.783Z,48.17
2019-03-23T14:42:31.574Z,44.70
2019-03-23T14:45:01.270Z,42.10
2019-03-23T14:47:31.065Z,45.33
2019-03-23T14:50:00.869Z,46.03
2019-03-23T14:52:31.190Z,44.50
2019-03-23T14:55:01.016Z,47.77
2019-03-23T14:57:30.697Z,47.60
2019-03-23T15:00:00.508Z,41.77
2019-03-23T15:02:30.679Z,44.70
2019-03-23T15:05:00.494Z,54.87
2019-03-23T15:07:30.657Z,54.87
2019-03-23T15:10:00.502Z,52.00
2019-03-23T15:12:30.187Z,56.67
2019-03-23T15:15:00.004Z,53.07
2019-03-23T15:17:29.756Z,55.73
2019-03-23T15:19:59.504Z,49.43
2019-03-23T15:22:30.117Z,54.07
2019-03-23T15:24:59.854Z,53.47
2019-03-23T15:27:29.659Z,60.40
2019-03-23T15:29:59.434Z,62.00
2019-03-23T15:32:29.202Z,52.43
2019-03-23T15:34:59.001Z,60.20
2019-03-23T15:37:29.140Z,64.17
2019-03-23T15:39:58.996Z,66.60
2019-03-23T15:42:28.872Z,60.50
2019-03-23T15:44:58.671Z,74.60
2019-03-23T15:47:28.440Z,68.10
2019-03-23T15:49:59.186Z,78.60
2019-03-23T15:52:29.292Z,71.33
2019-03-23T15:54:59.022Z,71.40
2019-03-23T15:57:28.793Z,84.17
2019-03-23T15:59:58.656Z,82.97
2019-03-23T16:02:29.041Z,66.40
2019-03-23T16:05:01.262Z,77.63
2019-03-23T16:07:31.068Z,79.30
2019-03-23T16:10:00.876Z,63.33
2019-03-23T16:12:34.773Z,77.97
2019-03-23T16:15:02.185Z,75.20
2019-03-23T16:17:31.950Z,78.90
2019-03-23T16:20:01.750Z,81.67
2019-03-23T16:22:31.604Z,73.97
2019-03-23T16:25:02.445Z,78.23
2019-03-23T16:27:36.039Z,71.83
2019-03-23T16:30:07.057Z,66.03
2019-03-23T16:32:37.149Z,83.10
2019-03-23T16:35:07.714Z,75.75
2019-03-23T16:37:37.847Z,79.13
2019-03-23T16:40:09.342Z,80.27
2019-03-23T16:42:45.221Z,78.97
2019-03-23T16:45:12.367Z,80.17
2019-03-23T16:47:42.188Z,75.75
2019-03-23T16:50:12.103Z,80.57
2019-03-23T16:52:42.818Z,84.17
2019-03-23T16:55:12.851Z,90.27
2019-03-23T16:57:43.391Z,85.32
2019-03-23T17:00:14.888Z,90.47
2019-03-23T17:02:44.683Z,76.87
2019-03-23T17:05:14.765Z,81.87
2019-03-23T17:07:45.115Z,91.92
2019-03-23T17:10:15.318Z,90.67
2019-03-23T17:12:54.982Z,86.80
2019-03-23T17:15:17.020Z,87.27
2019-03-23T17:17:48.068Z,96.03
2019-03-23T17:20:18.671Z,84.40
2019-03-23T17:22:48.726Z,93.27
2019-03-23T17:25:18.767Z,102.73
2019-03-23T17:27:48.542Z,94.72
2019-03-23T17:30:19.766Z,87.00
2019-03-23T17:32:50.683Z,96.90
2019-03-23T17:35:20.515Z,103.07
2019-03-23T17:37:50.597Z,79.90
2019-03-23T17:40:22.501Z,80.17
2019-03-23T17:42:52.312Z,86.00
2019-03-23T17:45:22.448Z,85.62
2019-03-23T17:47:52.324Z,88.80
2019-03-23T17:50:23.621Z,85.17
2019-03-23T17:52:53.906Z,86.83
2019-03-23T17:55:25.147Z,73.75
2019-03-23T17:57:55.057Z,71.20
2019-03-23T18:00:24.996Z,77.07
2019-03-23T18:02:55.712Z,77.10
2019-03-23T18:05:25.967Z,71.93
2019-03-23T18:07:55.824Z,71.42
2019-03-23T18:10:27.310Z,64.83
2019-03-23T18:12:58.018Z,60.83
2019-03-23T18:15:28.096Z,64.40
2019-03-23T18:17:58.084Z,62.33
2019-03-23T18:20:28.336Z,59.63
2019-03-23T18:22:58.271Z,65.57
2019-03-23T18:25:28.166Z,72.80
2019-03-23T18:27:58.196Z,69.87
2019-03-23T18:30:39.217Z,70.20
2019-03-23T18:33:09.357Z,70.03
2019-03-23T18:35:39.258Z,65.00
2019-03-23T18:38:09.147Z,83.60
2019-03-23T18:40:39.521Z,83.73
2019-03-23T18:43:09.542Z,76.37
2019-03-23T18:45:39.557Z,78.00
2019-03-23T18:48:09.663Z,79.43
2019-03-23T18:50:39.565Z,81.40
2019-03-23T18:53:09.269Z,81.90
2019-03-23T18:55:43.644Z,74.33
2019-03-23T18:58:13.487Z,71.23
2019-03-23T19:00:44.220Z,78.17
2019-03-23T19:03:13.942Z,72.07
2019-03-23T19:05:43.715Z,68.83
2019-03-23T19:08:13.921Z,71.90
2019-03-23T19:10:43.723Z,64.77
2019-03-23T19:13:13.596Z,66.80
2019-03-23T19:15:45.000Z,60.58
2019-03-23T19:18:14.728Z,68.83
2019-03-23T19:20:44.451Z,64.13
2019-03-23T19:23:14.306Z,57.77
2019-03-23T19:25:44.154Z,60.10
2019-03-23T19:28:14.201Z,61.35
2019-03-23T19:30:44.059Z,63.23
2019-03-23T19:33:13.823Z,68.10
2019-03-23T19:35:43.663Z,62.30
2019-03-23T19:38:13.413Z,57.60
2019-03-23T19:40:43.311Z,59.83
2019-03-23T19:43:13.103Z,54.13
2019-03-23T19:45:42.898Z,59.63
2019-03-23T19:48:12.753Z,56.13
2019-03-23T19:50:42.784Z,51.23
2019-03-23T19:53:12.649Z,51.27
2019-03-23T19:55:42.427Z,47.83
2019-03-23T19:58:12.219Z,60.40
2019-03-23T20:00:42.761Z,52.07
2019-03-23T20:03:12.564Z,47.33
2019-03-23T20:05:43.688Z,49.10
2019-03-23T20:08:13.717Z,55.53
2019-03-23T20:10:43.755Z,49.13
2019-03-23T20:13:13.551Z,47.70
2019-03-23T20:15:43.399Z,54.13
2019-03-23T20:18:13.294Z,44.63
2019-03-23T20:20:43.054Z,51.80
2019-03-23T20:23:12.916Z,51.87
2019-03-23T20:25:42.718Z,57.77
2019-03-23T20:28:12.644Z,53.40
2019-03-23T20:30:43.023Z,51.43
2019-03-23T20:33:19.421Z,50.43
2019-03-23T20:35:44.450Z,54.47
2019-03-23T20:38:14.311Z,51.20
2019-03-23T20:40:44.130Z,50.20
2019-03-23T20:43:14.115Z,58.63
2019-03-23T20:45:44.072Z,61.47
2019-03-23T20:48:14.072Z,61.20
2019-03-23T20:50:44.357Z,51.50
2019-03-23T20:53:16.050Z,51.30
2019-03-23T20:55:45.953Z,54.40
2019-03-23T20:58:15.817Z,53.43
2019-03-23T21:00:45.768Z,50.83
2019-03-23T21:03:15.614Z,62.77
2019-03-23T21:05:46.122Z,59.60
2019-03-23T21:08:15.933Z,53.73
2019-03-23T21:10:45.826Z,47.50
2019-03-23T21:13:15.958Z,57.85
2019-03-23T21:15:46.052Z,51.53
2019-03-23T21:18:15.770Z,56.40
2019-03-23T21:20:48.670Z,60.88
2019-03-23T21:23:18.488Z,61.87
2019-03-23T21:25:48.500Z,59.60
2019-03-23T21:28:18.760Z,54.90
2019-03-23T21:30:48.901Z,63.87
2019-03-23T21:33:18.667Z,60.20
2019-03-23T21:35:48.765Z,55.17
2019-03-23T21:38:18.896Z,51.83
2019-03-23T21:40:48.713Z,57.13
2019-03-23T21:43:18.930Z,53.90
2019-03-23T21:45:49.009Z,57.27
2019-03-23T21:48:18.897Z,51.70
2019-03-23T21:50:49.679Z,59.10
2019-03-23T21:53:19.878Z,51.27
2019-03-23T21:55:50.090Z,53.93
2019-03-23T21:58:20.384Z,66.20
2019-03-23T22:00:50.800Z,58.80
2019-03-23T22:03:20.624Z,61.33
2019-03-23T22:05:50.478Z,65.53
2019-03-23T22:08:20.312Z,57.13
2019-03-23T22:10:50.433Z,59.63
2019-03-23T22:13:20.446Z,58.30
2019-03-23T22:15:52.835Z,65.83
2019-03-23T22:18:23.112Z,61.60
2019-03-23T22:20:52.856Z,61.23
2019-03-23T22:23:22.705Z,50.53
2019-03-23T22:25:52.574Z,67.03
2019-03-23T22:28:22.430Z,61.13
2019-03-23T22:30:52.651Z,62.70
2019-03-23T22:33:23.991Z,59.93
2019-03-23T22:35:54.118Z,58.40
2019-03-23T22:38:25.420Z,67.33
2019-03-23T22:40:55.696Z,59.88
2019-03-23T22:43:25.479Z,63.80
2019-03-23T22:45:55.288Z,61.33
2019-03-23T22:48:25.129Z,67.27
2019-03-23T22:50:58.447Z,60.03
2019-03-23T22:53:28.699Z,60.33
2019-03-23T22:56:02.314Z,58.00
2019-03-23T22:58:32.225Z,53.43
2019-03-23T23:01:02.328Z,58.60
2019-03-23T23:03:32.215Z,72.37
2019-03-23T23:06:02.115Z,62.30
2019-03-23T23:08:31.932Z,66.70
2019-03-23T23:11:05.392Z,61.23
2019-03-23T23:13:35.836Z,62.58
2019-03-23T23:16:06.181Z,77.27
2019-03-23T23:18:37.296Z,68.10
2019-03-23T23:21:10.692Z,66.50
2019-03-23T23:23:40.788Z,68.43
2019-03-23T23:26:11.578Z,69.67
2019-03-23T23:28:41.750Z,66.30
2019-03-23T23:31:11.538Z,64.62
2019-03-23T23:33:41.379Z,67.77
2019-03-23T23:36:11.200Z,74.35
2019-03-23T23:38:41.027Z,65.80
2019-03-23T23:41:10.825Z,70.33
2019-03-23T23:43:40.635Z,74.67
2019-03-23T23:46:10.456Z,71.03
2019-03-23T23:48:50.696Z,80.20
2019-03-23T23:51:11.830Z,64.90
2019-03-23T23:53:42.403Z,67.60
2019-03-23T23:56:12.175Z,71.90
2019-03-23T23:58:42.012Z,68.67
